sensor_id;sensor_type;location;lat;lon;timestamp;P1;durP1;ratioP1;P2;durP2;ratioP2
8584;SDS011;7180;52.742;11.420;2024-01-06T00:00:42;25.73;;;19.63;;
8584;SDS011;7180;52.742;11.420;2024-01-06T00:03:07;26.27;;;20.43;;
8584;SDS011;7180;52.742;11.420;2024-01-06T00:05:32;26.23;;;20.20;;
8584;SDS011;7180;52.742;11.420;2024-01-06T00:07:57;25.90;;;20.67;;
8584;SDS011;7180;52.742;11.420;2024-01-06T00:10:23;26.80;;;20.67;;
8584;SDS011;7180;52.742;11.420;2024-01-06T00:12:48;25.47;;;20.37;;
8584;SDS011;7180;52.742;11.420;2024-01-06T00:15:13;28.87;;;22.00;;
8584;SDS011;7180;52.742;11.420;2024-01-06T00:17:39;27.97;;;21.33;;
8584;SDS011;7180;52.742;11.420;2024-01-06T00:20:04;30.90;;;21.77;;
8584;SDS011;7180;52.742;11.420;2024-01-06T00:22:30;28.47;;;21.17;;
8584;SDS011;7180;52.742;11.420;2024-01-06T00:24:56;27.87;;;21.27;;
8584;SDS011;7180;52.742;11.420;2024-01-06T00:27:21;31.07;;;22.80;;
8584;SDS011;7180;52.742;11.420;2024-01-06T00:29:46;29.47;;;22.67;;
8584;SDS011;7180;52.742;11.420;2024-01-06T00:32:12;32.30;;;22.80;;
8584;SDS011;7180;52.742;11.420;2024-01-06T00:34:37;32.10;;;22.77;;
8584;SDS011;7180;52.742;11.420;2024-01-06T00:37:03;28.67;;;22.20;;
8584;SDS011;7180;52.742;11.420;2024-01-06T00:39:28;31.73;;;22.87;;
8584;SDS011;7180;52.742;11.420;2024-01-06T00:41:53;32.80;;;23.00;;
8584;SDS011;7180;52.742;11.420;2024-01-06T00:44:19;33.97;;;23.63;;
8584;SDS011;7180;52.742;11.420;2024-01-06T00:46:44;30.97;;;22.23;;
8584;SDS011;7180;52.742;11.420;2024-01-06T00:49:10;33.27;;;22.30;;
8584;SDS011;7180;52.742;11.420;2024-01-06T00:51:35;31.83;;;22.63;;
8584;SDS011;7180;52.742;11.420;2024-01-06T00:54:00;29.70;;;22.23;;
8584;SDS011;7180;52.742;11.420;2024-01-06T00:56:26;35.27;;;23.10;;
8584;SDS011;7180;52.742;11.420;2024-01-06T00:58:52;30.67;;;22.37;;
8584;SDS011;7180;52.742;11.420;2024-01-06T01:01:18;32.80;;;23.50;;
8584;SDS011;7180;52.742;11.420;2024-01-06T01:03:43;31.00;;;23.37;;
8584;SDS011;7180;52.742;11.420;2024-01-06T01:06:08;32.20;;;22.30;;
8584;SDS011;7180;52.742;11.420;2024-01-06T01:08:33;32.93;;;22.83;;
8584;SDS011;7180;52.742;11.420;2024-01-06T01:10:59;31.00;;;22.87;;
8584;SDS011;7180;52.742;11.420;2024-01-06T01:13:24;34.17;;;23.53;;
8584;SDS011;7180;52.742;11.420;2024-01-06T01:15:49;35.50;;;23.50;;
8584;SDS011;7180;52.742;11.420;2024-01-06T01:18:15;33.70;;;22.53;;
8584;SDS011;7180;52.742;11.420;2024-01-06T01:20:40;35.53;;;23.63;;
8584;SDS011;7180;52.742;11.420;2024-01-06T01:23:08;31.23;;;22.20;;
8584;SDS011;7180;52.742;11.420;2024-01-06T01:25:34;33.40;;;22.33;;
8584;SDS011;7180;52.742;11.420;2024-01-06T01:27:59;33.93;;;23.63;;
8584;SDS011;7180;52.742;11.420;2024-01-06T01:30:24;33.90;;;24.47;;
8584;SDS011;7180;52.742;11.420;2024-01-06T01:32:50;36.87;;;24.40;;
8584;SDS011;7180;52.742;11.420;2024-01-06T01:35:15;36.03;;;23.57;;
8584;SDS011;7180;52.742;11.420;2024-01-06T01:37:40;32.40;;;23.10;;
8584;SDS011;7180;52.742;11.420;2024-01-06T01:40:06;30.23;;;22.83;;
8584;SDS011;7180;52.742;11.420;2024-01-06T01:42:32;32.23;;;23.50;;
8584;SDS011;7180;52.742;11.420;2024-01-06T01:44:57;32.30;;;23.43;;
8584;SDS011;7180;52.742;11.420;2024-01-06T01:47:23;31.53;;;23.03;;
8584;SDS011;7180;52.742;11.420;2024-01-06T01:49:48;34.73;;;23.37;;
8584;SDS011;7180;52.742;11.420;2024-01-06T01:52:14;32.70;;;23.07;;
8584;SDS011;7180;52.742;11.420;2024-01-06T01:54:41;32.27;;;23.27;;
8584;SDS011;7180;52.742;11.420;2024-01-06T01:57:08;30.90;;;22.17;;
8584;SDS011;7180;52.742;11.420;2024-01-06T01:59:35;34.00;;;23.07;;
8584;SDS011;7180;52.742;11.420;2024-01-06T02:02:01;31.80;;;22.93;;
8584;SDS011;7180;52.742;11.420;2024-01-06T02:04:27;31.27;;;22.17;;
8584;SDS011;7180;52.742;11.420;2024-01-06T02:06:52;33.37;;;22.17;;
8584;SDS011;7180;52.742;11.420;2024-01-06T02:09:17;31.97;;;21.87;;
8584;SDS011;7180;52.742;11.420;2024-01-06T02:11:43;32.17;;;23.17;;
8584;SDS011;7180;52.742;11.420;2024-01-06T02:14:08;31.13;;;22.13;;
8584;SDS011;7180;52.742;11.420;2024-01-06T02:16:33;33.77;;;22.53;;
8584;SDS011;7180;52.742;11.420;2024-01-06T02:18:58;30.90;;;22.60;;
8584;SDS011;7180;52.742;11.420;2024-01-06T02:21:24;34.50;;;23.03;;
8584;SDS011;7180;52.742;11.420;2024-01-06T02:23:50;34.80;;;22.10;;
8584;SDS011;7180;52.742;11.420;2024-01-06T02:26:16;32.70;;;22.33;;
8584;SDS011;7180;52.742;11.420;2024-01-06T02:28:41;30.43;;;22.50;;
8584;SDS011;7180;52.742;11.420;2024-01-06T02:31:06;33.80;;;21.93;;
8584;SDS011;7180;52.742;11.420;2024-01-06T02:33:31;34.57;;;22.67;;
8584;SDS011;7180;52.742;11.420;2024-01-06T02:35:57;28.63;;;21.23;;
8584;SDS011;7180;52.742;11.420;2024-01-06T02:38:22;31.40;;;21.53;;
8584;SDS011;7180;52.742;11.420;2024-01-06T02:40:47;29.10;;;21.13;;
8584;SDS011;7180;52.742;11.420;2024-01-06T02:43:13;29.13;;;21.23;;
8584;SDS011;7180;52.742;11.420;2024-01-06T02:45:38;30.53;;;21.67;;
8584;SDS011;7180;52.742;11.420;2024-01-06T02:48:03;31.73;;;20.80;;
8584;SDS011;7180;52.742;11.420;2024-01-06T02:50:29;30.97;;;20.90;;
8584;SDS011;7180;52.742;11.420;2024-01-06T02:52:54;29.07;;;21.30;;
8584;SDS011;7180;52.742;11.420;2024-01-06T02:55:19;32.90;;;22.17;;
8584;SDS011;7180;52.742;11.420;2024-01-06T02:57:44;29.73;;;22.37;;
8584;SDS011;7180;52.742;11.420;2024-01-06T03:00:10;32.03;;;22.47;;
8584;SDS011;7180;52.742;11.420;2024-01-06T03:02:36;33.43;;;22.77;;
8584;SDS011;7180;52.742;11.420;2024-01-06T03:05:02;31.27;;;22.50;;
8584;SDS011;7180;52.742;11.420;2024-01-06T03:07:28;34.30;;;22.50;;
8584;SDS011;7180;52.742;11.420;2024-01-06T03:09:53;33.20;;;22.43;;
8584;SDS011;7180;52.742;11.420;2024-01-06T03:12:18;32.00;;;21.97;;
8584;SDS011;7180;52.742;11.420;2024-01-06T03:14:44;32.70;;;22.27;;
8584;SDS011;7180;52.742;11.420;2024-01-06T03:17:09;33.20;;;23.43;;
8584;SDS011;7180;52.742;11.420;2024-01-06T03:19:38;31.57;;;22.10;;
8584;SDS011;7180;52.742;11.420;2024-01-06T03:22:04;33.87;;;22.37;;
8584;SDS011;7180;52.742;11.420;2024-01-06T03:24:29;35.33;;;22.73;;
8584;SDS011;7180;52.742;11.420;2024-01-06T03:26:56;32.13;;;22.50;;
8584;SDS011;7180;52.742;11.420;2024-01-06T03:29:21;32.60;;;22.67;;
8584;SDS011;7180;52.742;11.420;2024-01-06T03:31:46;31.73;;;22.97;;
8584;SDS011;7180;52.742;11.420;2024-01-06T03:34:12;34.90;;;22.63;;
8584;SDS011;7180;52.742;11.420;2024-01-06T03:36:37;32.23;;;22.07;;
8584;SDS011;7180;52.742;11.420;2024-01-06T03:39:03;30.23;;;21.37;;
8584;SDS011;7180;52.742;11.420;2024-01-06T03:41:29;36.77;;;23.53;;
8584;SDS011;7180;52.742;11.420;2024-01-06T03:43:54;33.03;;;23.00;;
8584;SDS011;7180;52.742;11.420;2024-01-06T03:46:20;32.47;;;21.83;;
8584;SDS011;7180;52.742;11.420;2024-01-06T03:48:45;34.90;;;22.20;;
8584;SDS011;7180;52.742;11.420;2024-01-06T03:51:12;34.50;;;21.90;;
8584;SDS011;7180;52.742;11.420;2024-01-06T03:53:37;28.53;;;21.90;;
8584;SDS011;7180;52.742;11.420;2024-01-06T03:56:03;30.17;;;22.50;;
8584;SDS011;7180;52.742;11.420;2024-01-06T03:58:29;30.77;;;21.57;;
8584;SDS011;7180;52.742;11.420;2024-01-06T04:00:54;31.60;;;22.90;;
8584;SDS011;7180;52.742;11.420;2024-01-06T04:03:19;33.27;;;23.13;;
8584;SDS011;7180;52.742;11.420;2024-01-06T04:05:45;34.67;;;23.63;;
8584;SDS011;7180;52.742;11.420;2024-01-06T04:08:10;33.27;;;22.43;;
8584;SDS011;7180;52.742;11.420;2024-01-06T04:10:36;32.03;;;22.20;;
8584;SDS011;7180;52.742;11.420;2024-01-06T04:13:02;30.67;;;22.67;;
8584;SDS011;7180;52.742;11.420;2024-01-06T04:15:27;29.13;;;21.80;;
8584;SDS011;7180;52.742;11.420;2024-01-06T04:17:53;32.90;;;22.33;;
8584;SDS011;7180;52.742;11.420;2024-01-06T04:20:19;30.83;;;21.67;;
8584;SDS011;7180;52.742;11.420;2024-01-06T04:22:44;29.63;;;20.77;;
8584;SDS011;7180;52.742;11.420;2024-01-06T04:25:10;31.47;;;21.40;;
8584;SDS011;7180;52.742;11.420;2024-01-06T04:27:35;29.17;;;21.77;;
8584;SDS011;7180;52.742;11.420;2024-01-06T04:30:00;31.83;;;22.30;;
8584;SDS011;7180;52.742;11.420;2024-01-06T04:32:26;30.57;;;22.57;;
8584;SDS011;7180;52.742;11.420;2024-01-06T04:34:51;30.70;;;22.43;;
8584;SDS011;7180;52.742;11.420;2024-01-06T04:37:16;33.17;;;22.27;;
8584;SDS011;7180;52.742;11.420;2024-01-06T04:39:41;32.67;;;21.97;;
8584;SDS011;7180;52.742;11.420;2024-01-06T04:42:07;32.90;;;22.37;;
8584;SDS011;7180;52.742;11.420;2024-01-06T04:44:32;33.57;;;22.10;;
8584;SDS011;7180;52.742;11.420;2024-01-06T04:46:58;32.07;;;22.83;;
8584;SDS011;7180;52.742;11.420;2024-01-06T04:49:23;32.90;;;23.60;;
8584;SDS011;7180;52.742;11.420;2024-01-06T04:51:48;30.37;;;22.37;;
8584;SDS011;7180;52.742;11.420;2024-01-06T04:54:13;32.43;;;22.80;;
8584;SDS011;7180;52.742;11.420;2024-01-06T04:56:39;31.00;;;22.60;;
8584;SDS011;7180;52.742;11.420;2024-01-06T04:59:04;31.30;;;22.27;;
8584;SDS011;7180;52.742;11.420;2024-01-06T05:01:30;32.30;;;23.33;;
8584;SDS011;7180;52.742;11.420;2024-01-06T05:03:55;34.17;;;22.67;;
8584;SDS011;7180;52.742;11.420;2024-01-06T05:06:20;31.07;;;22.83;;
8584;SDS011;7180;52.742;11.420;2024-01-06T05:08:46;32.63;;;23.37;;
8584;SDS011;7180;52.742;11.420;2024-01-06T05:11:11;31.90;;;23.10;;
8584;SDS011;7180;52.742;11.420;2024-01-06T05:13:37;33.97;;;23.33;;
8584;SDS011;7180;52.742;11.420;2024-01-06T05:16:02;32.30;;;22.83;;
8584;SDS011;7180;52.742;11.420;2024-01-06T05:18:28;35.30;;;24.67;;
8584;SDS011;7180;52.742;11.420;2024-01-06T05:20:53;32.37;;;23.00;;
8584;SDS011;7180;52.742;11.420;2024-01-06T05:23:19;34.30;;;23.63;;
8584;SDS011;7180;52.742;11.420;2024-01-06T05:25:44;35.73;;;24.37;;
8584;SDS011;7180;52.742;11.420;2024-01-06T05:28:10;33.90;;;24.50;;
8584;SDS011;7180;52.742;11.420;2024-01-06T05:30:35;37.63;;;24.77;;
8584;SDS011;7180;52.742;11.420;2024-01-06T05:33:01;33.93;;;23.27;;
8584;SDS011;7180;52.742;11.420;2024-01-06T05:35:26;35.20;;;23.83;;
8584;SDS011;7180;52.742;11.420;2024-01-06T05:37:51;33.23;;;23.20;;
8584;SDS011;7180;52.742;11.420;2024-01-06T05:40:17;33.83;;;24.00;;
8584;SDS011;7180;52.742;11.420;2024-01-06T05:42:42;33.20;;;24.17;;
8584;SDS011;7180;52.742;11.420;2024-01-06T05:45:09;34.80;;;25.07;;
8584;SDS011;7180;52.742;11.420;2024-01-06T05:47:36;33.27;;;23.80;;
8584;SDS011;7180;52.742;11.420;2024-01-06T05:50:02;36.53;;;25.23;;
8584;SDS011;7180;52.742;11.420;2024-01-06T05:52:27;34.97;;;23.87;;
8584;SDS011;7180;52.742;11.420;2024-01-06T05:54:52;37.47;;;25.47;;
8584;SDS011;7180;52.742;11.420;2024-01-06T05:57:18;36.17;;;24.77;;
8584;SDS011;7180;52.742;11.420;2024-01-06T05:59:43;35.90;;;24.77;;
8584;SDS011;7180;52.742;11.420;2024-01-06T06:02:08;38.00;;;26.10;;
8584;SDS011;7180;52.742;11.420;2024-01-06T06:04:33;38.63;;;25.20;;
8584;SDS011;7180;52.742;11.420;2024-01-06T06:06:59;39.17;;;25.67;;
8584;SDS011;7180;52.742;11.420;2024-01-06T06:09:24;41.67;;;27.27;;
8584;SDS011;7180;52.742;11.420;2024-01-06T06:11:49;37.30;;;25.50;;
8584;SDS011;7180;52.742;11.420;2024-01-06T06:14:15;41.07;;;25.30;;
8584;SDS011;7180;52.742;11.420;2024-01-06T06:16:40;38.90;;;24.40;;
8584;SDS011;7180;52.742;11.420;2024-01-06T06:19:05;40.27;;;24.87;;
8584;SDS011;7180;52.742;11.420;2024-01-06T06:21:31;45.47;;;27.50;;
8584;SDS011;7180;52.742;11.420;2024-01-06T06:23:56;41.90;;;25.63;;
8584;SDS011;7180;52.742;11.420;2024-01-06T06:26:21;38.87;;;25.63;;
8584;SDS011;7180;52.742;11.420;2024-01-06T06:28:47;43.43;;;27.23;;
8584;SDS011;7180;52.742;11.420;2024-01-06T06:31:12;40.40;;;25.80;;
8584;SDS011;7180;52.742;11.420;2024-01-06T06:33:37;40.40;;;26.10;;
8584;SDS011;7180;52.742;11.420;2024-01-06T06:36:04;37.87;;;25.73;;
8584;SDS011;7180;52.742;11.420;2024-01-06T06:38:29;40.63;;;25.47;;
8584;SDS011;7180;52.742;11.420;2024-01-06T06:40:55;43.73;;;26.83;;
8584;SDS011;7180;52.742;11.420;2024-01-06T06:43:21;41.17;;;26.33;;
8584;SDS011;7180;52.742;11.420;2024-01-06T06:45:46;40.60;;;24.60;;
8584;SDS011;7180;52.742;11.420;2024-01-06T06:48:12;40.40;;;25.03;;
8584;SDS011;7180;52.742;11.420;2024-01-06T06:50:37;39.03;;;25.17;;
8584;SDS011;7180;52.742;11.420;2024-01-06T06:53:02;44.60;;;25.70;;
8584;SDS011;7180;52.742;11.420;2024-01-06T06:55:28;39.20;;;25.03;;
8584;SDS011;7180;52.742;11.420;2024-01-06T06:57:53;39.90;;;25.97;;
8584;SDS011;7180;52.742;11.420;2024-01-06T07:00:19;42.67;;;26.17;;
8584;SDS011;7180;52.742;11.420;2024-01-06T07:02:44;41.93;;;26.53;;
8584;SDS011;7180;52.742;11.420;2024-01-06T07:05:09;41.33;;;26.40;;
8584;SDS011;7180;52.742;11.420;2024-01-06T07:07:35;40.37;;;26.83;;
8584;SDS011;7180;52.742;11.420;2024-01-06T07:10:00;44.03;;;26.77;;
8584;SDS011;7180;52.742;11.420;2024-01-06T07:12:27;42.63;;;25.67;;
8584;SDS011;7180;52.742;11.420;2024-01-06T07:14:52;45.97;;;26.63;;
8584;SDS011;7180;52.742;11.420;2024-01-06T07:17:18;41.77;;;26.30;;
8584;SDS011;7180;52.742;11.420;2024-01-06T07:19:43;44.80;;;25.90;;
8584;SDS011;7180;52.742;11.420;2024-01-06T07:22:08;42.10;;;25.53;;
8584;SDS011;7180;52.742;11.420;2024-01-06T07:24:34;40.90;;;26.00;;
8584;SDS011;7180;52.742;11.420;2024-01-06T07:26:59;45.13;;;26.83;;
8584;SDS011;7180;52.742;11.420;2024-01-06T07:29:24;44.77;;;27.43;;
8584;SDS011;7180;52.742;11.420;2024-01-06T07:31:50;41.70;;;26.17;;
8584;SDS011;7180;52.742;11.420;2024-01-06T07:34:15;39.60;;;26.23;;
8584;SDS011;7180;52.742;11.420;2024-01-06T07:36:40;37.30;;;25.17;;
8584;SDS011;7180;52.742;11.420;2024-01-06T07:39:06;40.43;;;25.57;;
8584;SDS011;7180;52.742;11.420;2024-01-06T07:41:31;42.30;;;25.90;;
8584;SDS011;7180;52.742;11.420;2024-01-06T07:43:57;38.73;;;25.00;;
8584;SDS011;7180;52.742;11.420;2024-01-06T07:46:23;37.97;;;23.90;;
8584;SDS011;7180;52.742;11.420;2024-01-06T07:48:48;39.37;;;25.97;;
8584;SDS011;7180;52.742;11.420;2024-01-06T07:51:13;37.80;;;23.67;;
8584;SDS011;7180;52.742;11.420;2024-01-06T07:53:39;37.03;;;25.30;;
8584;SDS011;7180;52.742;11.420;2024-01-06T07:56:04;40.23;;;25.90;;
8584;SDS011;7180;52.742;11.420;2024-01-06T07:58:30;39.33;;;24.67;;
8584;SDS011;7180;52.742;11.420;2024-01-06T08:00:55;42.37;;;26.17;;
8584;SDS011;7180;52.742;11.420;2024-01-06T08:03:21;38.47;;;25.83;;
8584;SDS011;7180;52.742;11.420;2024-01-06T08:05:46;41.63;;;25.40;;
8584;SDS011;7180;52.742;11.420;2024-01-06T08:08:11;42.67;;;24.63;;
8584;SDS011;7180;52.742;11.420;2024-01-06T08:10:38;38.17;;;25.50;;
8584;SDS011;7180;52.742;11.420;2024-01-06T08:13:03;40.00;;;23.07;;
8584;SDS011;7180;52.742;11.420;2024-01-06T08:15:28;36.50;;;24.07;;
8584;SDS011;7180;52.742;11.420;2024-01-06T08:17:54;38.33;;;24.50;;
8584;SDS011;7180;52.742;11.420;2024-01-06T08:20:19;37.13;;;24.40;;
8584;SDS011;7180;52.742;11.420;2024-01-06T08:22:45;36.13;;;23.67;;
8584;SDS011;7180;52.742;11.420;2024-01-06T08:25:10;39.43;;;24.63;;
8584;SDS011;7180;52.742;11.420;2024-01-06T08:27:36;35.43;;;24.40;;
8584;SDS011;7180;52.742;11.420;2024-01-06T08:30:01;34.37;;;24.03;;
8584;SDS011;7180;52.742;11.420;2024-01-06T08:32:26;38.80;;;24.53;;
8584;SDS011;7180;52.742;11.420;2024-01-06T08:34:52;33.27;;;23.27;;
8584;SDS011;7180;52.742;11.420;2024-01-06T08:37:17;34.93;;;23.93;;
8584;SDS011;7180;52.742;11.420;2024-01-06T08:39:42;37.67;;;23.10;;
8584;SDS011;7180;52.742;11.420;2024-01-06T08:42:07;33.27;;;22.73;;
8584;SDS011;7180;52.742;11.420;2024-01-06T08:44:33;33.37;;;23.17;;
8584;SDS011;7180;52.742;11.420;2024-01-06T08:46:58;33.43;;;23.17;;
8584;SDS011;7180;52.742;11.420;2024-01-06T08:49:23;32.43;;;22.40;;
8584;SDS011;7180;52.742;11.420;2024-01-06T08:51:49;34.40;;;22.83;;
8584;SDS011;7180;52.742;11.420;2024-01-06T08:54:15;31.37;;;22.60;;
8584;SDS011;7180;52.742;11.420;2024-01-06T08:56:41;36.33;;;23.67;;
8584;SDS011;7180;52.742;11.420;2024-01-06T08:59:06;31.93;;;22.97;;
8584;SDS011;7180;52.742;11.420;2024-01-06T09:01:31;34.40;;;23.37;;
8584;SDS011;7180;52.742;11.420;2024-01-06T09:03:57;34.40;;;22.63;;
8584;SDS011;7180;52.742;11.420;2024-01-06T09:06:22;34.70;;;24.50;;
8584;SDS011;7180;52.742;11.420;2024-01-06T09:08:48;39.00;;;25.23;;
8584;SDS011;7180;52.742;11.420;2024-01-06T09:11:13;35.33;;;23.67;;
8584;SDS011;7180;52.742;11.420;2024-01-06T09:13:39;37.93;;;24.20;;
8584;SDS011;7180;52.742;11.420;2024-01-06T09:16:04;36.87;;;23.83;;
8584;SDS011;7180;52.742;11.420;2024-01-06T09:18:29;33.53;;;22.83;;
8584;SDS011;7180;52.742;11.420;2024-01-06T09:20:54;35.37;;;23.67;;
8584;SDS011;7180;52.742;11.420;2024-01-06T09:23:21;34.37;;;23.47;;
8584;SDS011;7180;52.742;11.420;2024-01-06T09:25:46;32.30;;;23.47;;
8584;SDS011;7180;52.742;11.420;2024-01-06T09:28:14;36.87;;;23.73;;
8584;SDS011;7180;52.742;11.420;2024-01-06T09:30:40;34.03;;;23.70;;
8584;SDS011;7180;52.742;11.420;2024-01-06T09:33:05;32.77;;;23.53;;
8584;SDS011;7180;52.742;11.420;2024-01-06T09:35:33;31.50;;;22.93;;
8584;SDS011;7180;52.742;11.420;2024-01-06T09:37:58;34.70;;;24.37;;
8584;SDS011;7180;52.742;11.420;2024-01-06T09:40:23;36.10;;;23.97;;
8584;SDS011;7180;52.742;11.420;2024-01-06T09:42:49;36.97;;;23.73;;
8584;SDS011;7180;52.742;11.420;2024-01-06T09:45:15;37.07;;;23.73;;
8584;SDS011;7180;52.742;11.420;2024-01-06T09:47:41;34.53;;;23.40;;
8584;SDS011;7180;52.742;11.420;2024-01-06T09:50:08;31.00;;;23.30;;
8584;SDS011;7180;52.742;11.420;2024-01-06T09:52:37;35.33;;;23.87;;
8584;SDS011;7180;52.742;11.420;2024-01-06T09:55:06;32.67;;;23.80;;
8584;SDS011;7180;52.742;11.420;2024-01-06T09:57:36;34.43;;;23.73;;
8584;SDS011;7180;52.742;11.420;2024-01-06T10:00:02;34.83;;;23.20;;
8584;SDS011;7180;52.742;11.420;2024-01-06T10:02:29;34.67;;;24.30;;
8584;SDS011;7180;52.742;11.420;2024-01-06T10:04:56;36.27;;;24.27;;
8584;SDS011;7180;52.742;11.420;2024-01-06T10:07:22;36.87;;;24.97;;
8584;SDS011;7180;52.742;11.420;2024-01-06T10:09:47;32.40;;;23.43;;
8584;SDS011;7180;52.742;11.420;2024-01-06T10:12:12;38.00;;;25.50;;
8584;SDS011;7180;52.742;11.420;2024-01-06T10:14:37;36.50;;;24.10;;
8584;SDS011;7180;52.742;11.420;2024-01-06T10:17:07;36.07;;;23.37;;
8584;SDS011;7180;52.742;11.420;2024-01-06T10:19:33;35.50;;;23.63;;
8584;SDS011;7180;52.742;11.420;2024-01-06T10:21:59;34.43;;;24.67;;
8584;SDS011;7180;52.742;11.420;2024-01-06T10:24:27;44.83;;;27.00;;
8584;SDS011;7180;52.742;11.420;2024-01-06T10:26:52;35.17;;;24.27;;
8584;SDS011;7180;52.742;11.420;2024-01-06T10:29:17;37.50;;;24.33;;
8584;SDS011;7180;52.742;11.420;2024-01-06T10:31:42;35.77;;;23.37;;
8584;SDS011;7180;52.742;11.420;2024-01-06T10:34:08;42.30;;;24.97;;
8584;SDS011;7180;52.742;11.420;2024-01-06T10:36:34;37.13;;;24.80;;
8584;SDS011;7180;52.742;11.420;2024-01-06T10:39:02;35.07;;;24.20;;
8584;SDS011;7180;52.742;11.420;2024-01-06T10:41:28;37.63;;;24.13;;
8584;SDS011;7180;52.742;11.420;2024-01-06T10:43:55;36.43;;;24.90;;
8584;SDS011;7180;52.742;11.420;2024-01-06T10:46:23;35.43;;;24.27;;
8584;SDS011;7180;52.742;11.420;2024-01-06T10:48:50;37.57;;;24.30;;
8584;SDS011;7180;52.742;11.420;2024-01-06T10:51:17;37.23;;;25.13;;
8584;SDS011;7180;52.742;11.420;2024-01-06T10:53:42;39.40;;;24.87;;
8584;SDS011;7180;52.742;11.420;2024-01-06T10:56:09;37.80;;;25.97;;
8584;SDS011;7180;52.742;11.420;2024-01-06T10:58:35;40.33;;;24.77;;
8584;SDS011;7180;52.742;11.420;2024-01-06T11:01:07;37.00;;;24.30;;
8584;SDS011;7180;52.742;11.420;2024-01-06T11:03:33;37.13;;;24.87;;
8584;SDS011;7180;52.742;11.420;2024-01-06T11:06:01;38.37;;;25.13;;
8584;SDS011;7180;52.742;11.420;2024-01-06T11:08:26;40.13;;;25.50;;
8584;SDS011;7180;52.742;11.420;2024-01-06T11:10:55;37.83;;;26.53;;
8584;SDS011;7180;52.742;11.420;2024-01-06T11:13:23;39.57;;;26.47;;
8584;SDS011;7180;52.742;11.420;2024-01-06T11:15:50;40.73;;;24.37;;
8584;SDS011;7180;52.742;11.420;2024-01-06T11:18:35;39.87;;;25.03;;
8584;SDS011;7180;52.742;11.420;2024-01-06T11:23:51;37.77;;;25.53;;
8584;SDS011;7180;52.742;11.420;2024-01-06T11:26:31;36.40;;;25.97;;
8584;SDS011;7180;52.742;11.420;2024-01-06T11:28:57;35.77;;;24.33;;
8584;SDS011;7180;52.742;11.420;2024-01-06T11:31:23;34.60;;;24.50;;
8584;SDS011;7180;52.742;11.420;2024-01-06T11:33:53;31.63;;;23.53;;
8584;SDS011;7180;52.742;11.420;2024-01-06T11:36:19;34.63;;;24.93;;
8584;SDS011;7180;52.742;11.420;2024-01-06T11:38:45;35.83;;;24.67;;
8584;SDS011;7180;52.742;11.420;2024-01-06T11:41:44;36.17;;;24.30;;
8584;SDS011;7180;52.742;11.420;2024-01-06T11:44:12;34.33;;;23.90;;
8584;SDS011;7180;52.742;11.420;2024-01-06T11:46:38;31.77;;;23.17;;
8584;SDS011;7180;52.742;11.420;2024-01-06T11:49:06;35.17;;;24.07;;
8584;SDS011;7180;52.742;11.420;2024-01-06T11:51:34;34.40;;;25.00;;
8584;SDS011;7180;52.742;11.420;2024-01-06T11:53:59;36.00;;;25.43;;
8584;SDS011;7180;52.742;11.420;2024-01-06T11:56:25;29.87;;;22.83;;
8584;SDS011;7180;52.742;11.420;2024-01-06T11:58:50;33.67;;;24.00;;
8584;SDS011;7180;52.742;11.420;2024-01-06T12:01:15;33.37;;;23.00;;
8584;SDS011;7180;52.742;11.420;2024-01-06T12:03:41;33.33;;;23.57;;
8584;SDS011;7180;52.742;11.420;2024-01-06T12:06:06;32.27;;;22.87;;
8584;SDS011;7180;52.742;11.420;2024-01-06T12:08:31;33.23;;;23.20;;
8584;SDS011;7180;52.742;11.420;2024-01-06T12:11:03;28.03;;;22.07;;
8584;SDS011;7180;52.742;11.420;2024-01-06T12:13:29;32.57;;;22.57;;
8584;SDS011;7180;52.742;11.420;2024-01-06T12:15:55;29.07;;;22.33;;
8584;SDS011;7180;52.742;11.420;2024-01-06T12:18:20;29.33;;;21.13;;
8584;SDS011;7180;52.742;11.420;2024-01-06T12:20:45;31.37;;;22.97;;
8584;SDS011;7180;52.742;11.420;2024-01-06T12:23:11;29.17;;;22.53;;
8584;SDS011;7180;52.742;11.420;2024-01-06T12:25:36;28.70;;;20.10;;
8584;SDS011;7180;52.742;11.420;2024-01-06T12:28:03;31.07;;;22.13;;
8584;SDS011;7180;52.742;11.420;2024-01-06T12:30:30;28.60;;;22.13;;
8584;SDS011;7180;52.742;11.420;2024-01-06T12:32:56;28.97;;;22.17;;
8584;SDS011;7180;52.742;11.420;2024-01-06T12:35:21;28.97;;;21.90;;
8584;SDS011;7180;52.742;11.420;2024-01-06T12:37:47;30.40;;;21.50;;
8584;SDS011;7180;52.742;11.420;2024-01-06T12:40:13;28.40;;;21.27;;
8584;SDS011;7180;52.742;11.420;2024-01-06T12:42:40;29.03;;;22.33;;
8584;SDS011;7180;52.742;11.420;2024-01-06T12:45:07;28.83;;;23.20;;
8584;SDS011;7180;52.742;11.420;2024-01-06T12:47:33;30.57;;;21.23;;
8584;SDS011;7180;52.742;11.420;2024-01-06T12:49:58;27.67;;;21.37;;
8584;SDS011;7180;52.742;11.420;2024-01-06T12:52:24;27.60;;;20.57;;
8584;SDS011;7180;52.742;11.420;2024-01-06T12:54:49;26.07;;;20.77;;
8584;SDS011;7180;52.742;11.420;2024-01-06T12:57:14;29.03;;;21.23;;
8584;SDS011;7180;52.742;11.420;2024-01-06T12:59:40;28.33;;;22.67;;
8584;SDS011;7180;52.742;11.420;2024-01-06T13:02:05;26.13;;;20.13;;
8584;SDS011;7180;52.742;11.420;2024-01-06T13:04:30;27.17;;;20.63;;
8584;SDS011;7180;52.742;11.420;2024-01-06T13:06:56;26.70;;;19.90;;
8584;SDS011;7180;52.742;11.420;2024-01-06T13:09:21;23.73;;;20.10;;
8584;SDS011;7180;52.742;11.420;2024-01-06T13:11:48;25.83;;;21.07;;
8584;SDS011;7180;52.742;11.420;2024-01-06T13:14:15;24.63;;;19.73;;
8584;SDS011;7180;52.742;11.420;2024-01-06T13:16:40;22.67;;;19.17;;
8584;SDS011;7180;52.742;11.420;2024-01-06T13:19:05;22.40;;;19.83;;
8584;SDS011;7180;52.742;11.420;2024-01-06T13:21:30;23.80;;;20.07;;
8584;SDS011;7180;52.742;11.420;2024-01-06T13:23:56;23.00;;;20.37;;
8584;SDS011;7180;52.742;11.420;2024-01-06T13:26:26;23.20;;;20.00;;
8584;SDS011;7180;52.742;11.420;2024-01-06T13:28:52;25.23;;;20.87;;
8584;SDS011;7180;52.742;11.420;2024-01-06T13:31:18;23.53;;;20.93;;
8584;SDS011;7180;52.742;11.420;2024-01-06T13:33:44;24.03;;;20.40;;
8584;SDS011;7180;52.742;11.420;2024-01-06T13:36:09;24.53;;;20.27;;
8584;SDS011;7180;52.742;11.420;2024-01-06T13:38:34;24.57;;;20.53;;
8584;SDS011;7180;52.742;11.420;2024-01-06T13:41:00;25.03;;;19.97;;
8584;SDS011;7180;52.742;11.420;2024-01-06T13:43:25;22.30;;;19.37;;
8584;SDS011;7180;52.742;11.420;2024-01-06T13:45:51;23.90;;;19.30;;
8584;SDS011;7180;52.742;11.420;2024-01-06T13:48:16;22.27;;;18.27;;
8584;SDS011;7180;52.742;11.420;2024-01-06T13:50:41;21.60;;;18.13;;
8584;SDS011;7180;52.742;11.420;2024-01-06T13:53:08;23.63;;;19.17;;
8584;SDS011;7180;52.742;11.420;2024-01-06T13:55:33;21.57;;;19.37;;
8584;SDS011;7180;52.742;11.420;2024-01-06T13:57:59;22.23;;;19.83;;
8584;SDS011;7180;52.742;11.420;2024-01-06T14:00:24;20.80;;;18.60;;
8584;SDS011;7180;52.742;11.420;2024-01-06T14:02:50;22.50;;;18.97;;
8584;SDS011;7180;52.742;11.420;2024-01-06T14:05:16;22.00;;;18.77;;
8584;SDS011;7180;52.742;11.420;2024-01-06T14:07:44;20.67;;;18.47;;
8584;SDS011;7180;52.742;11.420;2024-01-06T14:10:11;21.80;;;19.50;;
8584;SDS011;7180;52.742;11.420;2024-01-06T14:12:37;20.13;;;17.97;;
8584;SDS011;7180;52.742;11.420;2024-01-06T14:15:03;20.67;;;18.37;;
8584;SDS011;7180;52.742;11.420;2024-01-06T14:17:29;19.17;;;17.17;;
8584;SDS011;7180;52.742;11.420;2024-01-06T14:19:54;18.20;;;16.40;;
8584;SDS011;7180;52.742;11.420;2024-01-06T14:22:20;20.17;;;17.73;;
8584;SDS011;7180;52.742;11.420;2024-01-06T14:24:45;20.77;;;18.30;;
8584;SDS011;7180;52.742;11.420;2024-01-06T14:27:10;19.13;;;17.20;;